sensor_id;sensor_type;location;lat;lon;timestamp;pressure;altitude;pressure_sealevel;temperature;humidity
66396;BME280;53207;51.378;-1.342;2023-05-29T00:01:54;101251.73;;;27.64;31.14
66396;BME280;53207;51.378;-1.342;2023-05-29T00:04:21;101249.15;;;27.64;31.03
66396;BME280;53207;51.378;-1.342;2023-05-29T00:06:49;101249.01;;;27.86;30.97
66396;BME280;53207;51.378;-1.342;2023-05-29T00:09:16;101255.15;;;27.40;30.92
66396;BME280;53207;51.378;-1.342;2023-05-29T00:11:43;101257.71;;;27.56;30.95
66396;BME280;53207;51.378;-1.342;2023-05-29T00:14:11;101257.83;;;27.58;30.84
66396;BME280;53207;51.378;-1.342;2023-05-29T00:16:38;101261.36;;;27.82;30.86
66396;BME280;53207;51.378;-1.342;2023-05-29T00:19:05;101263.16;;;27.30;30.88
66396;BME280;53207;51.378;-1.342;2023-05-29T00:21:33;101265.57;;;27.57;30.75
66396;BME280;53207;51.378;-1.342;2023-05-29T00:24:00;101268.56;;;27.71;30.82
66396;BME280;53207;51.378;-1.342;2023-05-29T00:26:27;101270.35;;;27.53;30.81
66396;BME280;53207;51.378;-1.342;2023-05-29T00:28:54;101270.61;;;27.79;30.69
66396;BME280;53207;51.378;-1.342;2023-05-29T00:31:22;101271.82;;;27.70;30.74
66396;BME280;53207;51.378;-1.342;2023-05-29T00:33:49;101278.21;;;27.44;30.78
66396;BME280;53207;51.378;-1.342;2023-05-29T00:36:16;101276.56;;;27.67;30.76
66396;BME280;53207;51.378;-1.342;2023-05-29T00:38:43;101281.29;;;27.42;30.78
66396;BME280;53207;51.378;-1.342;2023-05-29T00:41:14;101284.44;;;27.48;30.65
66396;BME280;53207;51.378;-1.342;2023-05-29T00:43:41;101284.01;;;27.42;30.73
66396;BME280;53207;51.378;-1.342;2023-05-29T00:46:09;101284.46;;;27.44;30.70
66396;BME280;53207;51.378;-1.342;2023-05-29T00:48:37;101278.95;;;27.39;30.81
66396;BME280;53207;51.378;-1.342;2023-05-29T00:51:05;101281.93;;;27.36;30.80
66396;BME280;53207;51.378;-1.342;2023-05-29T00:53:32;101283.93;;;27.57;30.78
66396;BME280;53207;51.378;-1.342;2023-05-29T00:55:59;101279.53;;;27.30;30.73
66396;BME280;53207;51.378;-1.342;2023-05-29T00:58:27;101283.70;;;27.30;30.77
66396;BME280;53207;51.378;-1.342;2023-05-29T01:00:54;101283.29;;;27.31;30.75
66396;BME280;53207;51.378;-1.342;2023-05-29T01:03:21;101286.90;;;27.44;30.85
66396;BME280;53207;51.378;-1.342;2023-05-29T01:05:48;101287.88;;;27.76;30.71
66396;BME280;53207;51.378;-1.342;2023-05-29T01:08:16;101289.06;;;27.21;30.79
66396;BME280;53207;51.378;-1.342;2023-05-29T01:10:43;101288.67;;;27.15;30.82
66396;BME280;53207;51.378;-1.342;2023-05-29T01:13:17;101290.52;;;27.22;30.64
66396;BME280;53207;51.378;-1.342;2023-05-29T01:15:49;101291.82;;;27.17;30.70
66396;BME280;53207;51.378;-1.342;2023-05-29T01:18:31;101294.65;;;27.19;30.67
66396;BME280;53207;51.378;-1.342;2023-05-29T01:21:06;101292.27;;;27.41;30.61
66396;BME280;53207;51.378;-1.342;2023-05-29T01:23:52;101291.49;;;27.37;30.54
66396;BME280;53207;51.378;-1.342;2023-05-29T01:26:47;101293.15;;;27.35;30.65
66396;BME280;53207;51.378;-1.342;2023-05-29T01:29:18;101294.65;;;27.63;30.53
66396;BME280;53207;51.378;-1.342;2023-05-29T01:31:46;101295.19;;;27.10;30.56
66396;BME280;53207;51.378;-1.342;2023-05-29T01:34:14;101294.07;;;27.06;30.57
66396;BME280;53207;51.378;-1.342;2023-05-29T01:36:41;101294.21;;;27.28;30.58
66396;BME280;53207;51.378;-1.342;2023-05-29T01:39:09;101293.96;;;27.23;30.61
66396;BME280;53207;51.378;-1.342;2023-05-29T01:41:37;101293.62;;;27.42;30.68
66396;BME280;53207;51.378;-1.342;2023-05-29T01:44:06;101293.06;;;27.24;30.52
66396;BME280;53207;51.378;-1.342;2023-05-29T01:46:34;101294.57;;;27.24;30.54
66396;BME280;53207;51.378;-1.342;2023-05-29T01:49:02;101293.36;;;27.48;30.52
66396;BME280;53207;51.378;-1.342;2023-05-29T01:51:29;101292.20;;;27.16;30.59
66396;BME280;53207;51.378;-1.342;2023-05-29T01:53:57;101287.92;;;27.18;30.54
66396;BME280;53207;51.378;-1.342;2023-05-29T01:56:25;101290.72;;;26.93;30.57
66396;BME280;53207;51.378;-1.342;2023-05-29T01:58:53;101288.80;;;27.13;30.58
66396;BME280;53207;51.378;-1.342;2023-05-29T02:01:21;101289.39;;;27.10;30.58
66396;BME280;53207;51.378;-1.342;2023-05-29T02:03:49;101289.37;;;26.86;30.57
66396;BME280;53207;51.378;-1.342;2023-05-29T02:06:16;101290.33;;;27.35;30.51
66396;BME280;53207;51.378;-1.342;2023-05-29T02:08:43;101291.35;;;27.05;30.54
66396;BME280;53207;51.378;-1.342;2023-05-29T02:11:10;101289.84;;;27.06;30.51
66396;BME280;53207;51.378;-1.342;2023-05-29T02:13:38;101289.83;;;26.97;30.58
66396;BME280;53207;51.378;-1.342;2023-05-29T02:16:06;101292.15;;;26.98;30.55
66396;BME280;53207;51.378;-1.342;2023-05-29T02:18:33;101292.32;;;26.94;30.58
66396;BME280;53207;51.378;-1.342;2023-05-29T02:21:00;101291.52;;;26.94;30.55
66396;BME280;53207;51.378;-1.342;2023-05-29T02:23:27;101291.34;;;26.95;30.51
66396;BME280;53207;51.378;-1.342;2023-05-29T02:25:54;101289.73;;;26.88;30.52
66396;BME280;53207;51.378;-1.342;2023-05-29T02:28:22;101289.89;;;27.16;30.51
66396;BME280;53207;51.378;-1.342;2023-05-29T02:30:50;101289.69;;;26.88;30.49
66396;BME280;53207;51.378;-1.342;2023-05-29T02:33:17;101289.53;;;27.11;30.46
66396;BME280;53207;51.378;-1.342;2023-05-29T02:35:44;101288.48;;;26.85;30.45
66396;BME280;53207;51.378;-1.342;2023-05-29T02:38:12;101285.41;;;27.07;30.45
66396;BME280;53207;51.378;-1.342;2023-05-29T02:40:39;101284.23;;;27.04;30.46
66396;BME280;53207;51.378;-1.342;2023-05-29T02:43:07;101284.28;;;26.78;30.44
66396;BME280;53207;51.378;-1.342;2023-05-29T02:45:34;101280.64;;;26.76;30.44
66396;BME280;53207;51.378;-1.342;2023-05-29T02:48:02;101278.33;;;26.70;30.45
66396;BME280;53207;51.378;-1.342;2023-05-29T02:50:29;101276.21;;;27.02;30.35
66396;BME280;53207;51.378;-1.342;2023-05-29T02:52:56;101274.87;;;26.97;30.38
66396;BME280;53207;51.378;-1.342;2023-05-29T02:55:23;101277.42;;;26.97;30.36
66396;BME280;53207;51.378;-1.342;2023-05-29T02:57:51;101276.31;;;26.66;30.35
66396;BME280;53207;51.378;-1.342;2023-05-29T03:00:18;101271.65;;;26.64;30.35
66396;BME280;53207;51.378;-1.342;2023-05-29T03:02:45;101273.04;;;26.63;30.32
66396;BME280;53207;51.378;-1.342;2023-05-29T03:05:12;101268.95;;;26.89;30.29
66396;BME280;53207;51.378;-1.342;2023-05-29T03:07:40;101269.17;;;26.87;30.27
66396;BME280;53207;51.378;-1.342;2023-05-29T03:10:08;101265.97;;;26.83;30.26
66396;BME280;53207;51.378;-1.342;2023-05-29T03:12:35;101267.40;;;26.81;30.28
66396;BME280;53207;51.378;-1.342;2023-05-29T03:15:03;101266.75;;;26.84;30.21
66396;BME280;53207;51.378;-1.342;2023-05-29T03:17:30;101265.29;;;26.81;30.19
66396;BME280;53207;51.378;-1.342;2023-05-29T03:19:58;101262.95;;;26.79;30.20
66396;BME280;53207;51.378;-1.342;2023-05-29T03:22:25;101266.73;;;26.43;30.27
66396;BME280;53207;51.378;-1.342;2023-05-29T03:24:52;101266.06;;;26.72;30.21
66396;BME280;53207;51.378;-1.342;2023-05-29T03:27:19;101267.35;;;26.51;30.11
66396;BME280;53207;51.378;-1.342;2023-05-29T03:29:47;101268.79;;;26.72;30.13
66396;BME280;53207;51.378;-1.342;2023-05-29T03:32:14;101268.24;;;26.39;30.15
66396;BME280;53207;51.378;-1.342;2023-05-29T03:34:41;101266.97;;;26.38;30.13
66396;BME280;53207;51.378;-1.342;2023-05-29T03:37:08;101268.10;;;26.64;30.12
66396;BME280;53207;51.378;-1.342;2023-05-29T03:39:36;101273.16;;;26.63;30.10
66396;BME280;53207;51.378;-1.342;2023-05-29T03:42:03;101276.15;;;26.60;30.08
66396;BME280;53207;51.378;-1.342;2023-05-29T03:44:30;101278.61;;;26.60;30.05
66396;BME280;53207;51.378;-1.342;2023-05-29T03:46:58;101282.15;;;26.57;30.05
66396;BME280;53207;51.378;-1.342;2023-05-29T03:49:25;101282.62;;;26.61;29.97
66396;BME280;53207;51.378;-1.342;2023-05-29T03:51:52;101287.54;;;26.52;30.02
66396;BME280;53207;51.378;-1.342;2023-05-29T03:54:19;101288.35;;;26.48;30.04
66396;BME280;53207;51.378;-1.342;2023-05-29T03:56:47;101289.64;;;26.51;29.98
66396;BME280;53207;51.378;-1.342;2023-05-29T03:59:14;101294.98;;;26.47;29.99
66396;BME280;53207;51.378;-1.342;2023-05-29T04:01:41;101296.04;;;26.16;29.97
66396;BME280;53207;51.378;-1.342;2023-05-29T04:04:08;101298.68;;;26.39;29.97
66396;BME280;53207;51.378;-1.342;2023-05-29T04:06:36;101303.75;;;26.41;29.93
66396;BME280;53207;51.378;-1.342;2023-05-29T04:09:03;101302.83;;;26.40;29.91
66396;BME280;53207;51.378;-1.342;2023-05-29T04:11:30;101300.73;;;26.40;29.88
66396;BME280;53207;51.378;-1.342;2023-05-29T04:13:57;101305.69;;;26.29;29.97
66396;BME280;53207;51.378;-1.342;2023-05-29T04:16:25;101306.86;;;26.30;29.93
66396;BME280;53207;51.378;-1.342;2023-05-29T04:18:52;101307.10;;;26.27;29.92
66396;BME280;53207;51.378;-1.342;2023-05-29T04:21:19;101306.00;;;26.04;29.85
66396;BME280;53207;51.378;-1.342;2023-05-29T04:23:47;101304.58;;;26.27;29.87
66396;BME280;53207;51.378;-1.342;2023-05-29T04:26:14;101306.15;;;26.24;29.86
66396;BME280;53207;51.378;-1.342;2023-05-29T04:28:41;101303.79;;;26.27;29.79
66396;BME280;53207;51.378;-1.342;2023-05-29T04:31:08;101304.35;;;26.19;29.84
66396;BME280;53207;51.378;-1.342;2023-05-29T04:33:36;101307.03;;;26.18;29.81
66396;BME280;53207;51.378;-1.342;2023-05-29T04:36:03;101310.16;;;26.18;29.82
66396;BME280;53207;51.378;-1.342;2023-05-29T04:38:31;101309.21;;;26.13;29.83
66396;BME280;53207;51.378;-1.342;2023-05-29T04:40:58;101312.08;;;26.32;29.81
66396;BME280;53207;51.378;-1.342;2023-05-29T04:43:26;101315.60;;;26.10;29.81
66396;BME280;53207;51.378;-1.342;2023-05-29T04:45:53;101316.68;;;26.10;29.77
66396;BME280;53207;51.378;-1.342;2023-05-29T04:48:20;101322.91;;;26.08;29.75
66396;BME280;53207;51.378;-1.342;2023-05-29T04:50:47;101324.87;;;26.05;29.77
66396;BME280;53207;51.378;-1.342;2023-05-29T04:53:15;101327.68;;;26.05;29.74
66396;BME280;53207;51.378;-1.342;2023-05-29T04:55:42;101325.86;;;26.07;29.69
66396;BME280;53207;51.378;-1.342;2023-05-29T04:58:09;101324.85;;;26.42;29.76
66396;BME280;53207;51.378;-1.342;2023-05-29T05:00:36;101327.02;;;26.20;29.73
66396;BME280;53207;51.378;-1.342;2023-05-29T05:03:04;101327.08;;;26.01;29.65
66396;BME280;53207;51.378;-1.342;2023-05-29T05:05:31;101330.56;;;26.43;29.67
66396;BME280;53207;51.378;-1.342;2023-05-29T05:07:58;101331.69;;;26.13;29.72
66396;BME280;53207;51.378;-1.342;2023-05-29T05:10:25;101327.48;;;25.90;29.71
66396;BME280;53207;51.378;-1.342;2023-05-29T05:12:53;101332.92;;;25.89;29.69
66396;BME280;53207;51.378;-1.342;2023-05-29T05:15:20;101335.89;;;26.15;29.58
66396;BME280;53207;51.378;-1.342;2023-05-29T05:17:47;101332.40;;;25.89;29.61
66396;BME280;53207;51.378;-1.342;2023-05-29T05:20:15;101335.02;;;25.92;29.59
66396;BME280;53207;51.378;-1.342;2023-05-29T05:22:42;101335.46;;;25.87;29.62
66396;BME280;53207;51.378;-1.342;2023-05-29T05:25:09;101340.89;;;25.92;29.56
66396;BME280;53207;51.378;-1.342;2023-05-29T05:27:36;101342.41;;;25.91;29.53
66396;BME280;53207;51.378;-1.342;2023-05-29T05:30:04;101344.40;;;25.93;29.56
66396;BME280;53207;51.378;-1.342;2023-05-29T05:32:32;101347.11;;;25.88;29.73
66396;BME280;53207;51.378;-1.342;2023-05-29T05:34:59;101346.22;;;26.03;29.87
66396;BME280;53207;51.378;-1.342;2023-05-29T05:37:26;101346.81;;;25.99;30.01
66396;BME280;53207;51.378;-1.342;2023-05-29T05:39:54;101343.96;;;26.27;29.94
66396;BME280;53207;51.378;-1.342;2023-05-29T05:42:21;101346.04;;;26.19;30.07
66396;BME280;53207;51.378;-1.342;2023-05-29T05:44:48;101347.55;;;26.19;30.10
66396;BME280;53207;51.378;-1.342;2023-05-29T05:47:15;101345.74;;;25.74;30.10
66396;BME280;53207;51.378;-1.342;2023-05-29T05:49:43;101348.44;;;26.19;30.10
66396;BME280;53207;51.378;-1.342;2023-05-29T05:52:10;101347.83;;;25.70;30.18
66396;BME280;53207;51.378;-1.342;2023-05-29T05:54:37;101354.67;;;25.94;30.17
66396;BME280;53207;51.378;-1.342;2023-05-29T05:57:05;101356.92;;;25.97;30.12
66396;BME280;53207;51.378;-1.342;2023-05-29T05:59:32;101355.22;;;25.83;30.28
66396;BME280;53207;51.378;-1.342;2023-05-29T06:01:59;101360.97;;;26.13;30.21
66396;BME280;53207;51.378;-1.342;2023-05-29T06:04:26;101356.75;;;26.16;30.18
66396;BME280;53207;51.378;-1.342;2023-05-29T06:06:53;101360.20;;;25.76;30.10
66396;BME280;53207;51.378;-1.342;2023-05-29T06:09:21;101361.37;;;25.76;30.13
66396;BME280;53207;51.378;-1.342;2023-05-29T06:11:48;101361.71;;;26.01;30.13
66396;BME280;53207;51.378;-1.342;2023-05-29T06:14:15;101362.32;;;26.19;30.26
66396;BME280;53207;51.378;-1.342;2023-05-29T06:16:43;101360.90;;;26.01;30.30
66396;BME280;53207;51.378;-1.342;2023-05-29T06:19:10;101358.05;;;25.73;30.42
66396;BME280;53207;51.378;-1.342;2023-05-29T06:21:37;101359.70;;;25.73;30.61
66396;BME280;53207;51.378;-1.342;2023-05-29T06:24:05;101359.37;;;26.15;30.74
66396;BME280;53207;51.378;-1.342;2023-05-29T06:26:33;101364.15;;;25.99;30.60
66396;BME280;53207;51.378;-1.342;2023-05-29T06:29:00;101366.59;;;26.18;30.96
66396;BME280;53207;51.378;-1.342;2023-05-29T06:31:27;101364.45;;;26.20;30.76
66396;BME280;53207;51.378;-1.342;2023-05-29T06:33:54;101369.73;;;25.89;31.13
66396;BME280;53207;51.378;-1.342;2023-05-29T06:36:22;101369.01;;;25.90;31.16
66396;BME280;53207;51.378;-1.342;2023-05-29T06:38:49;101366.65;;;25.73;30.77
66396;BME280;53207;51.378;-1.342;2023-05-29T06:41:16;101367.45;;;25.93;31.05
66396;BME280;53207;51.378;-1.342;2023-05-29T06:43:44;101369.32;;;26.20;31.01
66396;BME280;53207;51.378;-1.342;2023-05-29T06:46:11;101366.22;;;26.03;30.70
66396;BME280;53207;51.378;-1.342;2023-05-29T06:48:38;101369.22;;;26.00;30.74
66396;BME280;53207;51.378;-1.342;2023-05-29T06:51:06;101364.54;;;26.11;31.23
66396;BME280;53207;51.378;-1.342;2023-05-29T06:53:34;101364.82;;;26.13;31.12
66396;BME280;53207;51.378;-1.342;2023-05-29T06:56:02;101360.11;;;26.16;30.91
66396;BME280;53207;51.378;-1.342;2023-05-29T06:58:30;101360.32;;;25.84;30.86
66396;BME280;53207;51.378;-1.342;2023-05-29T07:00:57;101364.89;;;26.25;30.78
66396;BME280;53207;51.378;-1.342;2023-05-29T07:03:25;101363.84;;;26.07;30.86
66396;BME280;53207;51.378;-1.342;2023-05-29T07:05:53;101368.05;;;25.86;30.63
66396;BME280;53207;51.378;-1.342;2023-05-29T07:08:20;101367.50;;;26.06;30.59
66396;BME280;53207;51.378;-1.342;2023-05-29T07:10:47;101366.20;;;25.90;30.52
66396;BME280;53207;51.378;-1.342;2023-05-29T07:13:15;101362.03;;;26.15;30.78
66396;BME280;53207;51.378;-1.342;2023-05-29T07:15:43;101360.83;;;25.90;30.70
66396;BME280;53207;51.378;-1.342;2023-05-29T07:18:11;101360.83;;;26.14;30.73
66396;BME280;53207;51.378;-1.342;2023-05-29T07:20:38;101360.03;;;26.36;30.78
66396;BME280;53207;51.378;-1.342;2023-05-29T07:23:06;101363.07;;;26.06;31.40
66396;BME280;53207;51.378;-1.342;2023-05-29T07:25:33;101360.96;;;26.11;31.07
66396;BME280;53207;51.378;-1.342;2023-05-29T07:28:01;101362.64;;;25.86;31.37
66396;BME280;53207;51.378;-1.342;2023-05-29T07:30:28;101364.40;;;26.03;31.62
66396;BME280;53207;51.378;-1.342;2023-05-29T07:32:55;101356.04;;;25.86;31.24
66396;BME280;53207;51.378;-1.342;2023-05-29T07:35:22;101356.70;;;26.05;31.53
66396;BME280;53207;51.378;-1.342;2023-05-29T07:37:50;101353.69;;;26.34;31.27
66396;BME280;53207;51.378;-1.342;2023-05-29T07:40:17;101355.16;;;25.86;31.43
66396;BME280;53207;51.378;-1.342;2023-05-29T07:42:44;101355.70;;;25.89;31.31
66396;BME280;53207;51.378;-1.342;2023-05-29T07:45:11;101360.32;;;25.94;31.31
66396;BME280;53207;51.378;-1.342;2023-05-29T07:47:38;101360.97;;;26.26;30.80
66396;BME280;53207;51.378;-1.342;2023-05-29T07:50:07;101362.36;;;26.26;31.28
66396;BME280;53207;51.378;-1.342;2023-05-29T07:52:35;101358.97;;;26.26;31.16
66396;BME280;53207;51.378;-1.342;2023-05-29T07:55:02;101367.42;;;26.04;31.21
66396;BME280;53207;51.378;-1.342;2023-05-29T07:57:29;101370.45;;;26.25;31.36
66396;BME280;53207;51.378;-1.342;2023-05-29T07:59:57;101368.90;;;26.01;31.46
66396;BME280;53207;51.378;-1.342;2023-05-29T08:02:24;101369.70;;;26.25;31.27
66396;BME280;53207;51.378;-1.342;2023-05-29T08:04:51;101363.83;;;26.25;31.32
66396;BME280;53207;51.378;-1.342;2023-05-29T08:07:18;101366.37;;;26.50;31.16
66396;BME280;53207;51.378;-1.342;2023-05-29T08:09:46;101373.32;;;26.12;30.98
66396;BME280;53207;51.378;-1.342;2023-05-29T08:12:13;101373.10;;;26.11;31.33
66396;BME280;53207;51.378;-1.342;2023-05-29T08:14:40;101375.73;;;26.21;30.96
66396;BME280;53207;51.378;-1.342;2023-05-29T08:17:07;101377.29;;;25.97;31.35
66396;BME280;53207;51.378;-1.342;2023-05-29T08:19:35;101368.04;;;26.04;31.12
66396;BME280;53207;51.378;-1.342;2023-05-29T08:22:02;101376.05;;;25.96;31.48
66396;BME280;53207;51.378;-1.342;2023-05-29T08:24:29;101377.35;;;26.29;30.98
66396;BME280;53207;51.378;-1.342;2023-05-29T08:26:56;101381.39;;;25.98;31.35
66396;BME280;53207;51.378;-1.342;2023-05-29T08:29:24;101379.65;;;25.90;31.60
66396;BME280;53207;51.378;-1.342;2023-05-29T08:31:52;101370.63;;;26.33;31.64
66396;BME280;53207;51.378;-1.342;2023-05-29T08:34:19;101369.52;;;25.89;31.69
66396;BME280;53207;51.378;-1.342;2023-05-29T08:36:46;101374.75;;;26.21;31.35
66396;BME280;53207;51.378;-1.342;2023-05-29T08:39:13;101373.67;;;25.88;31.43
66396;BME280;53207;51.378;-1.342;2023-05-29T08:41:46;101375.98;;;26.11;31.15
66396;BME280;53207;51.378;-1.342;2023-05-29T08:44:21;101376.59;;;25.87;31.06
66396;BME280;53207;51.378;-1.342;2023-05-29T08:46:55;101380.07;;;25.98;30.88
66396;BME280;53207;51.378;-1.342;2023-05-29T08:49:22;101374.99;;;25.84;30.85
66396;BME280;53207;51.378;-1.342;2023-05-29T08:51:55;101374.69;;;25.95;30.79
66396;BME280;53207;51.378;-1.342;2023-05-29T08:54:24;101374.56;;;25.96;30.69
66396;BME280;53207;51.378;-1.342;2023-05-29T08:56:52;101374.31;;;25.84;30.72
66396;BME280;53207;51.378;-1.342;2023-05-29T08:59:20;101372.78;;;26.20;30.32
66396;BME280;53207;51.378;-1.342;2023-05-29T09:01:48;101376.67;;;25.89;30.29
66396;BME280;53207;51.378;-1.342;2023-05-29T09:04:15;101370.41;;;25.90;30.17
66396;BME280;53207;51.378;-1.342;2023-05-29T09:06:44;101369.17;;;26.33;30.08
66396;BME280;53207;51.378;-1.342;2023-05-29T09:09:12;101365.99;;;25.92;30.03
66396;BME280;53207;51.378;-1.342;2023-05-29T09:11:39;101368.39;;;26.00;30.06
66396;BME280;53207;51.378;-1.342;2023-05-29T09:14:11;101374.37;;;26.28;29.78
66396;BME280;53207;51.378;-1.342;2023-05-29T09:16:58;101367.60;;;25.97;29.72
66396;BME280;53207;51.378;-1.342;2023-05-29T09:19:25;101371.32;;;26.05;29.71
66396;BME280;53207;51.378;-1.342;2023-05-29T09:22:00;101369.51;;;26.02;29.69
66396;BME280;53207;51.378;-1.342;2023-05-29T09:24:28;101365.93;;;26.01;29.68
66396;BME280;53207;51.378;-1.342;2023-05-29T09:26:56;101364.31;;;26.13;29.71
66396;BME280;53207;51.378;-1.342;2023-05-29T09:29:23;101365.26;;;26.01;29.58
66396;BME280;53207;51.378;-1.342;2023-05-29T09:31:50;101368.42;;;25.99;29.58
66396;BME280;53207;51.378;-1.342;2023-05-29T09:34:17;101371.43;;;25.94;29.58
66396;BME280;53207;51.378;-1.342;2023-05-29T09:36:44;101380.13;;;25.82;29.61
66396;BME280;53207;51.378;-1.342;2023-05-29T09:39:12;101378.01;;;25.86;29.52
66396;BME280;53207;51.378;-1.342;2023-05-29T09:41:42;101382.58;;;26.33;29.46
66396;BME280;53207;51.378;-1.342;2023-05-29T09:44:12;101379.31;;;25.76;29.47
66396;BME280;53207;51.378;-1.342;2023-05-29T09:46:39;101380.60;;;25.92;29.30
66396;BME280;53207;51.378;-1.342;2023-05-29T09:49:10;101381.99;;;25.89;29.31
66396;BME280;53207;51.378;-1.342;2023-05-29T09:51:38;101378.79;;;25.89;29.34
66396;BME280;53207;51.378;-1.342;2023-05-29T09:54:21;101386.31;;;26.20;29.18
66396;BME280;53207;51.378;-1.342;2023-05-29T09:56:48;101384.22;;;26.22;29.09
66396;BME280;53207;51.378;-1.342;2023-05-29T09:59:17;101384.97;;;26.21;29.15
66396;BME280;53207;51.378;-1.342;2023-05-29T10:01:44;101387.33;;;25.99;28.99
66396;BME280;53207;51.378;-1.342;2023-05-29T10:04:12;101382.92;;;26.05;28.99
66396;BME280;53207;51.378;-1.342;2023-05-29T10:06:43;101378.28;;;26.34;28.88
66396;BME280;53207;51.378;-1.342;2023-05-29T10:09:12;101381.01;;;26.05;28.93
66396;BME280;53207;51.378;-1.342;2023-05-29T10:11:42;101375.71;;;26.21;28.98
66396;BME280;53207;51.378;-1.342;2023-05-29T10:14:16;101381.61;;;25.95;28.93
66396;BME280;53207;51.378;-1.342;2023-05-29T10:16:46;101367.39;;;26.02;28.87
66396;BME280;53207;51.378;-1.342;2023-05-29T10:19:19;101362.49;;;26.07;28.79
66396;BME280;53207;51.378;-1.342;2023-05-29T10:21:49;101367.70;;;26.07;28.74
66396;BME280;53207;51.378;-1.342;2023-05-29T10:24:18;101373.84;;;26.34;28.71
66396;BME280;53207;51.378;-1.342;2023-05-29T10:26:48;101375.26;;;26.04;28.51
66396;BME280;53207;51.378;-1.342;2023-05-29T10:29:22;101375.88;;;26.12;28.56
66396;BME280;53207;51.378;-1.342;2023-05-29T10:32:05;101379.79;;;26.25;28.64
66396;BME280;53207;51.378;-1.342;2023-05-29T10:34:41;101377.02;;;26.22;28.62
66396;BME280;53207;51.378;-1.342;2023-05-29T10:37:18;101375.48;;;26.06;28.49
66396;BME280;53207;51.378;-1.342;2023-05-29T10:39:47;101373.14;;;25.99;28.50
66396;BME280;53207;51.378;-1.342;2023-05-29T10:42:47;101378.51;;;26.21;28.40
66396;BME280;53207;51.378;-1.342;2023-05-29T10:46:20;101375.83;;;26.02;28.49
66396;BME280;53207;51.378;-1.342;2023-05-29T10:48:49;101367.82;;;26.03;28.31
66396;BME280;53207;51.378;-1.342;2023-05-29T10:51:32;101362.20;;;25.97;28.39
66396;BME280;53207;51.378;-1.342;2023-05-29T10:53:59;101362.88;;;26.05;28.15
66396;BME280;53207;51.378;-1.342;2023-05-29T10:56:29;101366.02;;;26.05;28.29
66396;BME280;53207;51.378;-1.342;2023-05-29T10:58:58;101362.01;;;26.06;28.28
66396;BME280;53207;51.378;-1.342;2023-05-29T11:01:28;101359.46;;;26.24;28.26
66396;BME280;53207;51.378;-1.342;2023-05-29T11:04:26;101366.52;;;25.99;28.21
66396;BME280;53207;51.378;-1.342;2023-05-29T11:06:53;101365.28;;;25.95;28.33
66396;BME280;53207;51.378;-1.342;2023-05-29T11:09:27;101366.19;;;25.97;28.32
66396;BME280;53207;51.378;-1.342;2023-05-29T11:12:12;101364.32;;;26.05;28.25
66396;BME280;53207;51.378;-1.342;2023-05-29T11:14:53;101365.69;;;26.03;28.22
66396;BME280;53207;51.378;-1.342;2023-05-29T11:17:29;101366.85;;;26.26;28.14
66396;BME280;53207;51.378;-1.342;2023-05-29T11:19:56;101356.82;;;26.48;28.06
66396;BME280;53207;51.378;-1.342;2023-05-29T11:22:29;101355.93;;;26.04;28.05
66396;BME280;53207;51.378;-1.342;2023-05-29T11:25:02;101359.86;;;26.29;28.01
66396;BME280;53207;51.378;-1.342;2023-05-29T11:27:32;101363.33;;;26.07;28.02
66396;BME280;53207;51.378;-1.342;2023-05-29T11:30:00;101358.85;;;26.03;28.16
66396;BME280;53207;51.378;-1.342;2023-05-29T11:32:28;101363.69;;;26.03;28.11
66396;BME280;53207;51.378;-1.342;2023-05-29T11:34:58;101361.30;;;26.01;28.08
66396;BME280;53207;51.378;-1.342;2023-05-29T11:37:27;101355.07;;;25.95;28.13
66396;BME280;53207;51.378;-1.342;2023-05-29T11:39:54;101352.31;;;25.93;28.14
66396;BME280;53207;51.378;-1.342;2023-05-29T11:42:21;101350.57;;;26.23;27.96
66396;BME280;53207;51.378;-1.342;2023-05-29T11:44:49;101352.63;;;26.15;28.02
66396;BME280;53207;51.378;-1.342;2023-05-29T11:47:16;101353.42;;;26.21;28.02
66396;BME280;53207;51.378;-1.342;2023-05-29T11:49:43;101354.05;;;25.98;27.95
66396;BME280;53207;51.378;-1.342;2023-05-29T11:52:12;101351.91;;;26.22;27.96
66396;BME280;53207;51.378;-1.342;2023-05-29T11:54:40;101349.55;;;26.01;27.87
66396;BME280;53207;51.378;-1.342;2023-05-29T11:57:07;101353.14;;;26.04;27.89
66396;BME280;53207;51.378;-1.342;2023-05-29T11:59:34;101352.90;;;26.03;28.02
66396;BME280;53207;51.378;-1.342;2023-05-29T12:02:02;101348.44;;;25.80;27.89
66396;BME280;53207;51.378;-1.342;2023-05-29T12:04:29;101345.78;;;25.84;27.86
66396;BME280;53207;51.378;-1.342;2023-05-29T12:06:57;101345.00;;;26.09;27.97
66396;BME280;53207;51.378;-1.342;2023-05-29T12:09:25;101345.58;;;26.17;28.11
66396;BME280;53207;51.378;-1.342;2023-05-29T12:11:53;101341.80;;;25.81;28.00
66396;BME280;53207;51.378;-1.342;2023-05-29T12:14:20;101342.30;;;25.93;27.94
66396;BME280;53207;51.378;-1.342;2023-05-29T12:16:48;101337.61;;;25.88;27.90
66396;BME280;53207;51.378;-1.342;2023-05-29T12:19:15;101333.30;;;25.91;27.81
66396;BME280;53207;51.378;-1.342;2023-05-29T12:21:42;101337.87;;;26.32;27.86
66396;BME280;53207;51.378;-1.342;2023-05-29T12:24:09;101339.95;;;25.62;27.81
66396;BME280;53207;51.378;-1.342;2023-05-29T12:26:37;101332.62;;;25.82;27.74
66396;BME280;53207;51.378;-1.342;2023-05-29T12:29:04;101331.85;;;26.18;27.55
66396;BME280;53207;51.378;-1.342;2023-05-29T12:31:32;101342.59;;;25.71;27.47
66396;BME280;53207;51.378;-1.342;2023-05-29T12:34:01;101340.73;;;26.19;27.44
66396;BME280;53207;51.378;-1.342;2023-05-29T12:36:28;101335.23;;;26.17;27.58
66396;BME280;53207;51.378;-1.342;2023-05-29T12:38:56;101336.21;;;26.05;27.60
66396;BME280;53207;51.378;-1.342;2023-05-29T12:41:25;101331.45;;;25.81;27.59
66396;BME280;53207;51.378;-1.342;2023-05-29T12:43:53;101333.50;;;26.10;27.56
66396;BME280;53207;51.378;-1.342;2023-05-29T12:46:21;101328.44;;;25.86;27.61
66396;BME280;53207;51.378;-1.342;2023-05-29T12:48:48;101325.65;;;25.91;27.55